This is the latest recevied weather packets stored in our database for station/object HS6TUX-4. If no packets are shown the sender has not sent any weather packets the latest 10 day(s).
| Time | Temp. | Humidity | Pressure | Rain* | Wind** | Luminosity | Snow |
|---|---|---|---|---|---|---|---|
| 1777639729 | 28.89° C | 99% | 726 hPa | - | - | 0 W/m² | - |
| 1777637938 | 29.44° C | 99% | 727 hPa | - | - | 0 W/m² | - |
| 1777637010 | 30° C | 99% | 727 hPa | - | - | 0 W/m² | - |
| 1777636082 | 30.56° C | 99% | 728 hPa | - | - | 0 W/m² | - |
| 1777635154 | 32.78° C | 99% | 730 hPa | - | - | 0 W/m² | - |
| 1777634226 | 34.44° C | 99% | 732 hPa | - | - | 0 W/m² | - |
| 1777633298 | 35° C | 99% | 733 hPa | - | - | 3 W/m² | - |
| 1777632370 | 35.56° C | 98% | 734 hPa | - | - | 10 W/m² | - |
| 1777631442 | 36.11° C | 96% | 734 hPa | - | - | 12 W/m² | - |
| 1777630514 | 36.11° C | 95% | 734 hPa | - | - | 13 W/m² | - |
| 1777629586 | 36.11° C | 94% | 734 hPa | - | - | 13 W/m² | - |
| 1777628658 | 36.67° C | 93% | 735 hPa | - | - | 15 W/m² | - |
| 1777627730 | 36.67° C | 92% | 735 hPa | - | - | 16 W/m² | - |
| 1777626802 | 37.78° C | 90% | 736 hPa | - | - | 19 W/m² | - |
| 1777625873 | 37.22° C | 89% | 735 hPa | - | - | 19 W/m² | - |
| 1777624945 | 38.33° C | 87% | 736 hPa | - | - | 20 W/m² | - |
| 1777624017 | 38.89° C | 85% | 738 hPa | - | - | 23 W/m² | - |
| 1777623090 | 38.89° C | 84% | 738 hPa | - | - | 25 W/m² | - |
| 1777622162 | 38.89° C | 85% | 738 hPa | - | - | 26 W/m² | - |
| 1777621234 | 39.44° C | 81% | 738 hPa | - | - | 29 W/m² | - |
| 1777620306 | 39.44° C | 82% | 738 hPa | - | - | 29 W/m² | - |
| 1777619378 | 40° C | 80% | 739 hPa | - | - | 32 W/m² | - |
| 1777618450 | 38.89° C | 84% | 737 hPa | - | - | 33 W/m² | - |
| 1777617522 | 37.78° C | 89% | 736 hPa | - | - | 32 W/m² | - |
| 1777616594 | 39.44° C | 85% | 738 hPa | - | - | 33 W/m² | - |
* Rain since midnight (hover to see other rain measurements)
** Current wind speed in m/s (hover to see current wind gust speed)